Time;durP1;ratioP1;P1;durP2;ratioP2;P2;SDS_P1;SDS_P2;PMS_P1;PMS_P2;Temp;Humidity;BMP_temperature;BMP_pressure;BME280_temperature;BME280_humidity;BME280_pressure;Samples;Min_cycle;Max_cycle;Signal;HPM_P1;HPM_P2
2023/04/19 00:01:29;;;;;;;15.00;13.60;;;14.30;75.30;;;;;;5095242;28;20474;-56
2023/04/19 00:03:57;;;;;;;16.13;13.83;;;14.30;75.40;;;;;;5094797;28;20487;-57
2023/04/19 00:06:24;;;;;;;15.57;14.10;;;14.30;75.40;;;;;;5094773;28;21010;-57
2023/04/19 00:08:51;;;;;;;15.00;13.60;;;14.20;75.60;;;;;;5095251;28;20454;-57
2023/04/19 00:11:18;;;;;;;16.47;14.77;;;14.20;76.70;;;;;;5095434;28;20467;-56
2023/04/19 00:13:44;;;;;;;16.10;14.60;;;14.20;76.00;;;;;;5095407;28;20444;-57
2023/04/19 00:16:11;;;;;;;15.50;13.87;;;14.20;76.10;;;;;;5098153;28;20447;-56
2023/04/19 00:18:38;;;;;;;15.97;13.97;;;14.20;76.50;;;;;;5097215;28;20447;-56
2023/04/19 00:21:06;;;;;;;16.27;14.57;;;14.10;76.50;;;;;;5096169;28;20486;-57
2023/04/19 00:23:33;;;;;;;16.50;14.90;;;14.10;76.80;;;;;;5096195;28;20448;-56
2023/04/19 00:26:03;;;;;;;15.13;13.70;;;14.20;76.70;;;;;;5095054;28;20479;-56
2023/04/19 00:28:30;;;;;;;15.03;13.60;;;14.10;76.70;;;;;;5095031;28;20514;-56
2023/04/19 00:30:56;;;;;;;15.87;14.30;;;14.10;77.10;;;;;;5094838;28;21096;-56
2023/04/19 00:33:23;;;;;;;15.87;14.27;;;14.10;77.20;;;;;;5094729;28;20459;-56
2023/04/19 00:35:50;;;;;;;15.67;14.17;;;14.10;77.50;;;;;;5094760;28;20442;-56
2023/04/19 00:38:18;;;;;;;18.37;16.57;;;14.10;77.40;;;;;;5095043;28;20444;-56
2023/04/19 00:40:45;;;;;;;16.27;14.77;;;14.10;77.50;;;;;;5094934;28;20456;-56
2023/04/19 00:43:12;;;;;;;16.57;14.80;;;14.10;77.60;;;;;;5094541;28;20467;-56
2023/04/19 00:45:39;;;;;;;15.40;13.90;;;14.00;77.70;;;;;;5093674;28;20476;-56
2023/04/19 00:48:06;;;;;;;18.30;15.83;;;14.00;78.10;;;;;;5094335;28;20451;-56
2023/04/19 00:50:34;;;;;;;16.90;15.30;;;14.00;78.30;;;;;;5094137;28;20444;-56
2023/04/19 00:53:02;;;;;;;15.60;14.10;;;13.90;78.60;;;;;;5093962;28;20471;-56
2023/04/19 00:55:30;;;;;;;14.73;13.33;;;13.90;78.70;;;;;;5094379;28;20497;-56
2023/04/19 00:57:57;;;;;;;15.87;14.37;;;14.00;78.80;;;;;;5093804;28;21014;-56
2023/04/19 01:00:24;;;;;;;15.67;14.27;;;14.00;78.70;;;;;;5094288;28;20444;-56
2023/04/19 01:02:51;;;;;;;16.43;14.73;;;14.00;79.00;;;;;;5094210;28;20817;-56
2023/04/19 01:05:18;;;;;;;17.13;14.83;;;14.00;79.70;;;;;;5093916;28;20443;-56
2023/04/19 01:07:45;;;;;;;15.60;14.10;;;14.00;79.10;;;;;;5094445;28;20440;-56
2023/04/19 01:10:12;;;;;;;15.70;14.10;;;14.00;79.30;;;;;;5094131;28;20451;-56
2023/04/19 01:12:40;;;;;;;15.73;13.90;;;14.00;79.60;;;;;;5094308;28;20463;-56
2023/04/19 01:15:08;;;;;;;16.10;14.40;;;14.00;79.70;;;;;;5093590;28;20953;-56
2023/04/19 01:17:35;;;;;;;15.90;14.30;;;14.00;80.00;;;;;;5093965;28;20443;-56
2023/04/19 01:20:04;;;;;;;15.50;13.90;;;13.90;80.10;;;;;;5093625;28;20550;-56
2023/04/19 01:22:33;;;;;;;16.33;14.13;;;13.90;80.20;;;;;;5093869;28;20487;-56
2023/04/19 01:24:59;;;;;;;15.70;14.20;;;13.90;80.50;;;;;;5093705;28;20454;-56
2023/04/19 01:27:26;;;;;;;14.73;13.03;;;13.90;80.90;;;;;;5093465;28;20528;-56
2023/04/19 01:29:53;;;;;;;16.27;14.77;;;13.90;80.90;;;;;;5093735;28;20504;-56
2023/04/19 01:32:20;;;;;;;18.87;14.27;;;13.90;80.90;;;;;;5093243;28;20888;-56
2023/04/19 01:34:47;;;;;;;15.17;13.73;;;13.90;81.30;;;;;;5093603;28;20475;-56
2023/04/19 01:37:14;;;;;;;16.57;14.77;;;13.90;81.20;;;;;;5093297;28;20956;-56
2023/04/19 01:39:42;;;;;;;16.30;14.77;;;13.90;82.00;;;;;;5093340;28;20494;-56
2023/04/19 01:42:09;;;;;;;14.67;13.23;;;13.90;81.40;;;;;;5093517;28;20483;-56
2023/04/19 01:44:36;;;;;;;16.77;15.00;;;13.90;81.50;;;;;;5093527;28;20542;-56
2023/04/19 01:47:03;;;;;;;16.50;14.80;;;13.90;81.60;;;;;;5093388;28;20479;-56
2023/04/19 01:49:29;;;;;;;16.30;13.93;;;13.90;81.50;;;;;;5093598;28;20817;-56
2023/04/19 01:51:56;;;;;;;14.90;13.40;;;13.80;81.90;;;;;;5093084;28;20535;-56
2023/04/19 01:54:23;;;;;;;18.17;16.20;;;13.80;81.90;;;;;;5093448;28;20480;-56
2023/04/19 01:56:51;;;;;;;16.83;15.20;;;13.80;82.10;;;;;;5094906;28;20440;-56
2023/04/19 01:59:17;;;;;;;16.60;15.00;;;13.80;82.30;;;;;;5097524;28;20454;-56
2023/04/19 02:01:44;;;;;;;16.70;14.53;;;13.80;82.70;;;;;;5097559;28;20486;-56
2023/04/19 02:04:11;;;;;;;16.40;14.90;;;13.80;82.80;;;;;;5097509;28;20448;-56
2023/04/19 02:06:37;;;;;;;16.03;14.30;;;13.80;83.00;;;;;;5097283;28;20480;-56
2023/04/19 02:09:04;;;;;;;17.40;15.70;;;13.80;83.10;;;;;;5097464;28;20447;-56
2023/04/19 02:11:31;;;;;;;15.20;13.60;;;13.80;83.30;;;;;;5097184;28;20499;-56
2023/04/19 02:13:59;;;;;;;17.23;15.43;;;13.80;83.60;;;;;;5097417;28;20443;-56
2023/04/19 02:16:25;;;;;;;16.77;14.97;;;13.80;83.70;;;;;;5097267;28;20442;-56
2023/04/19 02:18:52;;;;;;;16.40;14.67;;;13.70;84.20;;;;;;5098165;28;20451;-56
2023/04/19 02:21:19;;;;;;;17.60;15.80;;;13.70;84.50;;;;;;5097186;28;20828;-56
2023/04/19 02:23:45;;;;;;;16.40;14.47;;;13.70;84.50;;;;;;5097187;28;20448;-56
2023/04/19 02:26:12;;;;;;;20.23;14.73;;;13.70;85.60;;;;;;5097084;28;20479;-56
2023/04/19 02:28:39;;;;;;;17.40;15.60;;;13.70;85.00;;;;;;5097105;28;20471;-56
2023/04/19 02:31:07;;;;;;;18.37;16.47;;;13.70;85.10;;;;;;5097070;28;20442;-56
2023/04/19 02:33:34;;;;;;;16.93;15.20;;;13.60;85.10;;;;;;5096975;28;20455;-56
2023/04/19 02:36:01;;;;;;;16.87;14.53;;;13.60;85.30;;;;;;5096888;28;20435;-56
2023/04/19 02:38:27;;;;;;;17.67;15.80;;;13.60;85.90;;;;;;5096931;28;20488;-56
2023/04/19 02:40:54;;;;;;;18.40;16.50;;;13.60;86.20;;;;;;5096428;28;20948;-56
2023/04/19 02:43:21;;;;;;;16.17;14.47;;;13.60;86.50;;;;;;5096692;28;20468;-56
2023/04/19 02:45:47;;;;;;;18.80;16.90;;;13.50;87.40;;;;;;5096964;28;20436;-56
2023/04/19 02:48:15;;;;;;;16.83;15.07;;;13.50;87.70;;;;;;5097229;28;20447;-56
2023/04/19 02:50:42;;;;;;;18.67;15.40;;;13.50;88.20;;;;;;5096289;28;20790;-56
2023/04/19 02:53:09;;;;;;;15.40;13.80;;;13.50;88.60;;;;;;5096607;28;20501;-56
2023/04/19 02:55:36;;;;;;;19.13;16.73;;;13.50;88.80;;;;;;5096878;28;20492;-56
2023/04/19 02:58:02;;;;;;;18.07;16.23;;;13.50;89.10;;;;;;5097267;28;20454;-56
2023/04/19 03:00:29;;;;;;;15.87;14.27;;;13.50;89.20;;;;;;5096458;28;20447;-56
2023/04/19 03:02:56;;;;;;;14.83;13.33;;;13.40;89.30;;;;;;5096301;28;20479;-56
2023/04/19 03:05:24;;;;;;;16.10;14.53;;;13.50;89.60;;;;;;5096398;28;20451;-56
2023/04/19 03:07:51;;;;;;;14.70;13.20;;;13.40;89.90;;;;;;5095553;28;20491;-56
2023/04/19 03:10:18;;;;;;;15.07;13.57;;;13.50;90.00;;;;;;5095983;28;20451;-58
2023/04/19 03:12:44;;;;;;;15.20;13.60;;;13.40;90.10;;;;;;5096989;28;20583;-56
2023/04/19 03:15:11;;;;;;;14.40;13.00;;;13.40;90.30;;;;;;5096718;28;20452;-56
2023/04/19 03:17:38;;;;;;;16.80;15.10;;;13.40;90.50;;;;;;5098040;28;20451;-56
2023/04/19 03:20:09;;;;;;;15.47;13.90;;;13.40;90.70;;;;;;5099070;28;20452;-56
2023/04/19 03:22:38;;;;;;;17.77;16.00;;;13.40;90.80;;;;;;5097373;28;20470;-56
2023/04/19 03:25:05;;;;;;;17.40;15.63;;;13.40;90.90;;;;;;5096697;28;20452;-56
2023/04/19 03:27:34;;;;;;;16.93;15.33;;;13.40;91.10;;;;;;5096549;28;20490;-56
2023/04/19 03:30:00;;;;;;;17.27;15.30;;;13.40;91.20;;;;;;5096333;28;20444;-56
2023/04/19 03:32:27;;;;;;;17.87;16.03;;;13.40;91.20;;;;;;5096348;28;20507;-56
2023/04/19 03:34:54;;;;;;;18.10;16.20;;;13.40;91.20;;;;;;5096345;28;20534;-56
2023/04/19 03:37:21;;;;;;;19.57;15.50;;;13.40;91.20;;;;;;5095917;28;20443;-56
2023/04/19 03:39:49;;;;;;;17.13;15.43;;;13.40;91.10;;;;;;5095815;28;20460;-56
2023/04/19 03:42:15;;;;;;;17.83;14.80;;;13.40;91.10;;;;;;5095864;28;20997;-56
2023/04/19 03:44:42;;;;;;;17.23;15.43;;;13.40;91.20;;;;;;5096009;28;20513;-56
2023/04/19 03:47:09;;;;;;;15.77;14.10;;;13.40;91.30;;;;;;5096002;28;20487;-56
2023/04/19 03:49:35;;;;;;;15.60;14.13;;;13.40;91.20;;;;;;5096010;28;20443;-56
2023/04/19 03:52:02;;;;;;;16.23;14.63;;;13.40;91.20;;;;;;5096059;28;20478;-56
2023/04/19 03:54:29;;;;;;;17.03;15.23;;;13.30;91.20;;;;;;5095833;28;20823;-56
2023/04/19 03:56:57;;;;;;;17.30;15.60;;;13.40;91.20;;;;;;5095074;28;20937;-56
2023/04/19 03:59:24;;;;;;;19.00;13.93;;;13.40;91.60;;;;;;5095378;28;20546;-56
2023/04/19 04:01:50;;;;;;;20.30;16.60;;;13.40;91.30;;;;;;5095397;28;20558;-56
2023/04/19 04:04:17;;;;;;;17.80;14.20;;;13.40;91.30;;;;;;5096017;28;20500;-56
2023/04/19 04:06:44;;;;;;;14.73;13.30;;;13.40;91.30;;;;;;5095163;28;20482;-56
2023/04/19 04:09:11;;;;;;;16.70;14.90;;;13.40;91.20;;;;;;5095171;28;20450;-56
2023/04/19 04:11:37;;;;;;;15.80;14.30;;;13.40;91.20;;;;;;5095100;28;20471;-56
2023/04/19 04:14:06;;;;;;;16.00;14.40;;;13.40;91.10;;;;;;5095029;28;20450;-56
2023/04/19 04:16:33;;;;;;;15.70;14.13;;;13.40;91.10;;;;;;5094990;28;20444;-56
2023/04/19 04:18:59;;;;;;;15.87;14.20;;;13.40;91.10;;;;;;5094927;28;20444;-57
2023/04/19 04:21:27;;;;;;;16.83;15.03;;;13.40;91.00;;;;;;5093576;28;20929;-56
2023/04/19 04:23:53;;;;;;;17.07;14.63;;;13.40;91.00;;;;;;5094859;28;20828;-56
2023/04/19 04:26:20;;;;;;;15.40;13.80;;;13.40;91.00;;;;;;5094887;28;20447;-56
2023/04/19 04:28:47;;;;;;;16.67;14.93;;;13.40;91.00;;;;;;5094830;28;20444;-56
2023/04/19 04:31:16;;;;;;;15.37;13.90;;;13.40;91.00;;;;;;5094711;28;20440;-56
2023/04/19 04:33:44;;;;;;;16.40;14.50;;;13.50;91.20;;;;;;5095797;28;20455;-56
2023/04/19 04:36:11;;;;;;;15.07;13.47;;;13.40;90.90;;;;;;5094647;28;20456;-56
2023/04/19 04:38:38;;;;;;;17.43;12.87;;;13.50;91.10;;;;;;5094575;28;20455;-56
2023/04/19 04:41:05;;;;;;;14.90;13.30;;;13.40;91.10;;;;;;5094333;28;20460;-56
2023/04/19 04:43:32;;;;;;;17.97;14.57;;;13.40;91.40;;;;;;5094365;28;20474;-56
2023/04/19 04:45:59;;;;;;;15.07;13.47;;;13.50;91.50;;;;;;5094382;28;20505;-56
2023/04/19 04:48:27;;;;;;;15.17;13.50;;;13.50;91.40;;;;;;5094358;28;20487;-56
2023/04/19 04:50:54;;;;;;;16.47;14.77;;;13.40;91.40;;;;;;5094351;28;20463;-56
2023/04/19 04:53:21;;;;;;;16.13;13.60;;;13.50;91.50;;;;;;5094331;28;20468;-56
2023/04/19 04:55:47;;;;;;;17.80;13.90;;;13.40;91.40;;;;;;5094394;28;20455;-56
2023/04/19 04:58:14;;;;;;;14.80;13.00;;;13.40;91.40;;;;;;5094886;28;20440;-56
2023/04/19 05:00:41;;;;;;;13.77;12.50;;;13.40;91.20;;;;;;5094231;28;20444;-56
2023/04/19 05:03:07;;;;;;;13.87;12.53;;;13.40;91.30;;;;;;5094111;28;20463;-56
2023/04/19 05:05:35;;;;;;;14.90;12.77;;;13.30;91.40;;;;;;5094236;28;20454;-56
2023/04/19 05:08:03;;;;;;;14.13;12.63;;;13.30;91.50;;;;;;5094012;28;20513;-56
2023/04/19 05:10:30;;;;;;;18.07;13.13;;;13.30;91.30;;;;;;5094018;28;20451;-56
2023/04/19 05:12:57;;;;;;;13.90;12.07;;;13.40;91.40;;;;;;5093879;28;20478;-56
2023/04/19 05:15:23;;;;;;;14.33;11.73;;;13.40;91.60;;;;;;5094046;28;20451;-56
2023/04/19 05:17:50;;;;;;;13.50;11.80;;;13.40;91.50;;;;;;5093888;28;20447;-56
2023/04/19 05:20:17;;;;;;;12.40;10.67;;;13.40;91.50;;;;;;5093784;28;20455;-56
2023/04/19 05:22:45;;;;;;;14.20;11.73;;;13.40;91.40;;;;;;5093804;28;20468;-56
2023/04/19 05:25:11;;;;;;;11.50;10.30;;;13.40;91.40;;;;;;5093719;28;20444;-56
2023/04/19 05:27:38;;;;;;;11.50;10.40;;;13.40;91.40;;;;;;5093714;28;20484;-56
2023/04/19 05:30:07;;;;;;;11.53;9.50;;;13.40;91.20;;;;;;5093645;28;20444;-56
2023/04/19 05:32:33;;;;;;;14.17;10.00;;;13.40;91.10;;;;;;5093235;28;20468;-56
2023/04/19 05:35:00;;;;;;;12.13;9.47;;;13.40;91.10;;;;;;5093661;28;20447;-56
2023/04/19 05:37:27;;;;;;;9.73;8.63;;;13.40;90.80;;;;;;5093591;28;20435;-56
2023/04/19 05:39:56;;;;;;;8.60;7.80;;;13.50;90.50;;;;;;5093249;28;21061;-56
2023/04/19 05:42:23;;;;;;;12.20;8.73;;;13.40;90.50;;;;;;5093480;28;20460;-56
2023/04/19 05:44:50;;;;;;;8.40;7.13;;;13.40;90.10;;;;;;5093427;28;20447;-56
2023/04/19 05:47:17;;;;;;;9.00;7.70;;;13.50;90.00;;;;;;5093088;28;20868;-56
2023/04/19 05:49:43;;;;;;;9.70;7.40;;;13.50;89.80;;;;;;5093440;28;20444;-56
2023/04/19 05:52:10;;;;;;;8.10;7.30;;;13.50;89.20;;;;;;5093514;28;20476;-56
2023/04/19 05:54:37;;;;;;;10.10;6.97;;;13.50;88.90;;;;;;5093423;28;20455;-56
2023/04/19 05:57:05;;;;;;;8.37;7.20;;;13.50;88.70;;;;;;5094226;28;20483;-56
2023/04/19 05:59:31;;;;;;;7.00;6.40;;;13.50;88.00;;;;;;5093644;28;20493;-56
2023/04/19 06:01:59;;;;;;;10.90;6.23;;;13.50;87.30;;;;;;5093360;28;20464;-56
2023/04/19 06:04:26;;;;;;;6.57;5.90;;;13.50;85.40;;;;;;5092876;28;20448;-56
2023/04/19 06:06:53;;;;;;;10.10;6.13;;;13.50;84.60;;;;;;5093304;28;20448;-56
2023/04/19 06:09:20;;;;;;;6.17;5.57;;;13.50;84.70;;;;;;5093595;28;20452;-56
2023/04/19 06:11:47;;;;;;;7.73;6.30;;;13.50;84.40;;;;;;5093035;28;20483;-56
2023/04/19 06:14:15;;;;;;;8.03;6.57;;;13.50;83.60;;;;;;5093080;28;20942;-56
2023/04/19 06:16:41;;;;;;;7.17;6.47;;;13.50;83.00;;;;;;5093576;28;20443;-56
2023/04/19 06:19:08;;;;;;;8.50;6.63;;;13.60;83.40;;;;;;5093524;28;20448;-57
2023/04/19 06:21:35;;;;;;;6.80;6.20;;;13.60;83.00;;;;;;5096036;28;20479;-56
2023/04/19 06:24:02;;;;;;;6.50;5.80;;;13.60;82.80;;;;;;5095046;28;20463;-56
2023/04/19 06:26:29;;;;;;;7.97;6.23;;;13.70;82.40;;;;;;5095799;28;20448;-57
2023/04/19 06:28:55;;;;;;;7.23;5.90;;;13.80;82.50;;;;;;5094157;28;20475;-57
2023/04/19 06:31:24;;;;;;;8.13;6.17;;;13.80;82.30;;;;;;5093659;28;20447;-57
2023/04/19 06:33:50;;;;;;;6.57;5.90;;;13.90;81.10;;;;;;5093247;28;20812;-57
2023/04/19 06:36:17;;;;;;;6.17;5.57;;;13.90;81.00;;;;;;5093165;28;20444;-57
2023/04/19 06:38:45;;;;;;;6.67;5.83;;;14.00;80.70;;;;;;5093116;28;20447;-57
2023/04/19 06:41:11;;;;;;;7.37;6.20;;;14.10;80.70;;;;;;5092805;28;20961;-57
2023/04/19 06:43:39;;;;;;;7.00;6.30;;;14.20;79.30;;;;;;5094241;28;20474;-57
2023/04/19 06:46:06;;;;;;;6.53;5.80;;;14.30;79.00;;;;;;5096989;28;20486;-57
2023/04/19 06:48:35;;;;;;;6.70;5.50;;;14.30;78.70;;;;;;5096769;28;20540;-57
2023/04/19 06:51:02;;;;;;;6.03;5.53;;;14.40;78.20;;;;;;5111240;28;20466;-57
2023/04/19 06:53:29;;;;;;;7.10;6.40;;;14.50;77.40;;;;;;5117191;28;20466;-57
2023/04/19 06:55:59;;;;;;;5.73;5.13;;;14.60;76.90;;;;;;5116802;28;20935;-57
2023/04/19 06:58:26;;;;;;;5.77;5.20;;;14.60;76.60;;;;;;5117158;28;20443;-57
2023/04/19 07:00:53;;;;;;;6.53;5.83;;;14.70;74.90;;;;;;5116893;28;20500;-57
2023/04/19 07:03:20;;;;;;;6.93;5.80;;;14.80;74.20;;;;;;5117139;28;20536;-57
2023/04/19 07:05:48;;;;;;;6.90;6.30;;;14.90;74.70;;;;;;5104196;28;20464;-56
2023/04/19 07:08:15;;;;;;;8.50;5.70;;;15.00;73.40;;;;;;5096269;28;20483;-57
2023/04/19 07:10:42;;;;;;;7.73;6.67;;;15.20;72.60;;;;;;5095545;28;20984;-56
2023/04/19 07:13:10;;;;;;;11.70;6.00;;;15.30;71.40;;;;;;5096159;28;20467;-57
2023/04/19 07:15:37;;;;;;;6.23;5.63;;;15.40;71.40;;;;;;5096245;28;20499;-57
2023/04/19 07:18:04;;;;;;;7.70;6.90;;;15.50;69.60;;;;;;5095845;28;20933;-56
2023/04/19 07:20:31;;;;;;;7.00;6.40;;;15.60;68.70;;;;;;5096312;28;20489;-56
2023/04/19 07:22:59;;;;;;;6.77;6.17;;;15.50;67.50;;;;;;5095787;28;20988;-57
2023/04/19 07:25:26;;;;;;;6.27;5.63;;;15.50;68.00;;;;;;5096122;28;20454;-57
2023/04/19 07:27:53;;;;;;;7.27;6.57;;;15.60;67.50;;;;;;5096019;28;20483;-57
2023/04/19 07:30:20;;;;;;;6.70;5.70;;;15.60;67.00;;;;;;5096114;28;20531;-57
2023/04/19 07:32:47;;;;;;;8.27;5.90;;;15.60;64.90;;;;;;5096242;28;20464;-57
2023/04/19 07:35:14;;;;;;;8.33;5.30;;;15.60;65.90;;;;;;5096074;28;20473;-57
2023/04/19 07:37:42;;;;;;;6.57;5.97;;;15.70;66.40;;;;;;5096095;28;20541;-57
2023/04/19 07:40:11;;;;;;;9.63;6.20;;;15.70;64.60;;;;;;5095764;28;20451;-57
2023/04/19 07:42:38;;;;;;;11.73;6.37;;;15.70;64.20;;;;;;5095884;28;20514;-57
2023/04/19 07:45:05;;;;;;;6.60;5.60;;;15.80;64.90;;;;;;5096050;28;20443;-57
2023/04/19 07:47:32;;;;;;;7.13;6.30;;;15.90;64.20;;;;;;5095426;28;20462;-57
2023/04/19 07:49:59;;;;;;;9.80;5.90;;;16.00;63.20;;;;;;5095657;28;20866;-57
2023/04/19 07:52:25;;;;;;;7.53;6.83;;;16.10;63.00;;;;;;5095565;28;20889;-57
2023/04/19 07:54:52;;;;;;;7.37;6.67;;;16.20;62.20;;;;;;5094937;28;20452;-57
2023/04/19 07:57:20;;;;;;;7.17;6.47;;;16.20;60.70;;;;;;5095141;28;20485;-57
2023/04/19 07:59:47;;;;;;;8.03;5.47;;;16.30;60.90;;;;;;5095425;28;20443;-57
2023/04/19 08:02:15;;;;;;;6.30;5.70;;;16.40;61.30;;;;;;5095374;28;20460;-57
2023/04/19 08:04:41;;;;;;;6.77;5.80;;;16.50;61.30;;;;;;5095359;28;20448;-57
2023/04/19 08:07:08;;;;;;;7.50;6.80;;;16.60;60.40;;;;;;5095531;28;20447;-57
2023/04/19 08:09:36;;;;;;;8.07;6.77;;;16.80;59.90;;;;;;5095507;28;20484;-57
2023/04/19 08:12:03;;;;;;;6.47;5.87;;;16.90;59.70;;;;;;5095033;28;20476;-57
2023/04/19 08:14:31;;;;;;;7.27;6.60;;;17.00;59.10;;;;;;5094675;28;20452;-56
2023/04/19 08:16:58;;;;;;;7.90;7.10;;;17.20;59.20;;;;;;5094683;28;20456;-57
2023/04/19 08:19:24;;;;;;;7.33;6.63;;;17.40;58.60;;;;;;5095007;28;20945;-56
2023/04/19 08:21:51;;;;;;;7.57;6.87;;;17.50;58.40;;;;;;5095039;28;20831;-56
2023/04/19 08:24:18;;;;;;;8.50;6.53;;;17.60;57.70;;;;;;5094807;28;20517;-56
2023/04/19 08:26:52;;;;;;;6.93;6.33;;;17.70;56.80;;;;;;5094725;28;20444;-56
2023/04/19 08:29:19;;;;;;;8.40;6.30;;;17.90;56.40;;;;;;5095188;28;21034;-57
2023/04/19 08:31:47;;;;;;;7.97;6.50;;;18.00;55.80;;;;;;5094795;28;20468;-57
2023/04/19 08:34:13;;;;;;;6.67;6.00;;;18.10;55.50;;;;;;5094724;28;20458;-56
2023/04/19 08:36:40;;;;;;;7.47;6.77;;;18.30;54.20;;;;;;5094470;28;20448;-55
2023/04/19 08:39:07;;;;;;;6.63;6.03;;;18.30;53.20;;;;;;5095438;28;20463;-55
2023/04/19 08:41:35;;;;;;;9.10;8.20;;;18.40;53.50;;;;;;5094153;28;20463;-55
2023/04/19 08:44:03;;;;;;;9.50;7.53;;;18.60;53.40;;;;;;5094365;28;20454;-55
2023/04/19 08:46:31;;;;;;;8.90;7.10;;;18.70;51.90;;;;;;5094083;28;20967;-55
2023/04/19 08:49:00;;;;;;;6.23;5.63;;;18.80;50.70;;;;;;5094183;28;20483;-55
2023/04/19 08:51:28;;;;;;;6.60;5.63;;;18.90;50.20;;;;;;5094281;28;20492;-56
2023/04/19 08:53:58;;;;;;;6.27;5.67;;;18.90;50.30;;;;;;5094300;28;20457;-56
2023/04/19 08:56:25;;;;;;;6.13;5.13;;;19.10;51.10;;;;;;5094249;28;20452;-56
2023/04/19 08:58:52;;;;;;;6.13;5.47;;;19.10;50.20;;;;;;5094094;28;20493;-55
2023/04/19 09:01:18;;;;;;;7.37;5.20;;;19.30;49.70;;;;;;5094660;28;20451;-56
2023/04/19 09:03:45;;;;;;;7.17;5.70;;;19.40;48.50;;;;;;5094086;28;20500;-56
2023/04/19 09:06:13;;;;;;;5.57;5.00;;;19.60;47.50;;;;;;5093314;28;20467;-56
2023/04/19 09:08:40;;;;;;;6.17;5.40;;;19.70;48.00;;;;;;5093658;28;20876;-56
2023/04/19 09:11:07;;;;;;;7.47;4.73;;;19.90;47.50;;;;;;5093685;28;20828;-55
2023/04/19 09:13:37;;;;;;;5.60;4.80;;;20.00;46.40;;;;;;5094275;28;20452;-56
2023/04/19 09:16:04;;;;;;;7.70;5.83;;;20.10;46.70;;;;;;5094293;28;20447;-59
2023/04/19 09:18:31;;;;;;;5.20;4.33;;;20.10;44.90;;;;;;5094799;28;20493;-56
2023/04/19 09:20:57;;;;;;;7.80;4.97;;;20.20;44.40;;;;;;5096820;28;20450;-56
2023/04/19 09:23:27;;;;;;;7.10;5.37;;;20.30;43.70;;;;;;5095056;28;20472;-56
2023/04/19 09:25:56;;;;;;;8.90;4.83;;;20.30;42.70;;;;;;5094605;28;20452;-56
2023/04/19 09:28:23;;;;;;;6.20;5.33;;;20.30;43.80;;;;;;5094009;28;20475;-56
2023/04/19 09:30:50;;;;;;;5.57;4.10;;;20.40;43.90;;;;;;5094150;28;20443;-56
2023/04/19 09:33:32;;;;;;;5.00;4.50;;;20.60;42.00;;;;;;5093623;28;20988;-56
2023/04/19 09:36:00;;;;;;;7.00;4.87;;;20.70;41.30;;;;;;5093720;28;20535;-56
2023/04/19 09:38:28;;;;;;;4.33;3.93;;;20.80;42.10;;;;;;5093903;28;20542;-56
2023/04/19 09:41:06;;;;;;;7.90;4.60;;;20.90;41.20;;;;;;5093630;28;20448;-56
2023/04/19 09:43:33;;;;;;;4.83;3.70;;;21.00;41.70;;;;;;5093753;28;20459;-56
2023/04/19 09:46:00;;;;;;;6.50;3.60;;;21.10;38.80;;;;;;5093592;28;20448;-56
2023/04/19 09:48:27;;;;;;;4.10;3.70;;;21.10;39.10;;;;;;5093401;28;21047;-56
2023/04/19 09:50:55;;;;;;;3.93;3.37;;;21.20;39.20;;;;;;5093478;28;20567;-55
2023/04/19 09:53:23;;;;;;;9.60;4.30;;;21.20;39.10;;;;;;5093556;28;20487;-56
2023/04/19 09:55:52;;;;;;;3.93;3.47;;;21.20;37.90;;;;;;5093670;28;20443;-56
2023/04/19 09:58:20;;;;;;;4.20;3.60;;;21.30;39.00;;;;;;5093523;28;20452;-56
2023/04/19 10:00:51;;;;;;;6.03;3.37;;;21.50;39.30;;;;;;5093311;28;20450;-56
2023/04/19 10:03:18;;;;;;;9.70;3.87;;;21.70;37.70;;;;;;5093617;28;20463;-56
2023/04/19 10:05:45;;;;;;;7.07;3.90;;;22.00;37.70;;;;;;5093359;28;20451;-56
2023/04/19 10:08:13;;;;;;;7.77;3.70;;;22.30;37.70;;;;;;5093389;28;20447;-56
2023/04/19 10:10:41;;;;;;;6.57;3.53;;;22.60;37.10;;;;;;5093611;28;20456;-56
2023/04/19 10:13:12;;;;;;;5.23;3.30;;;22.90;35.20;;;;;;5093279;28;20467;-56
2023/04/19 10:15:41;;;;;;;7.20;3.90;;;23.20;35.20;;;;;;5092838;28;20466;-55
2023/04/19 10:18:09;;;;;;;7.60;3.50;;;23.50;34.70;;;;;;5095129;28;20866;-56
2023/04/19 10:20:44;;;;;;;4.07;3.60;;;23.90;33.90;;;;;;5097013;28;20443;-56
2023/04/19 10:23:11;;;;;;;5.27;3.50;;;24.20;32.30;;;;;;5097300;28;20469;-56
2023/04/19 10:25:38;;;;;;;7.07;3.73;;;24.40;32.20;;;;;;5097107;28;20448;-57
2023/04/19 10:28:05;;;;;;;4.27;3.07;;;24.70;29.80;;;;;;5097892;28;20476;-56
2023/04/19 10:30:33;;;;;;;6.03;3.93;;;25.00;30.90;;;;;;5096817;28;20510;-56
2023/04/19 10:33:02;;;;;;;3.47;3.20;;;25.50;30.40;;;;;;5096814;28;20467;-56
2023/04/19 10:35:36;;;;;;;5.70;3.50;;;25.90;28.90;;;;;;5096805;28;20447;-57
2023/04/19 10:38:05;;;;;;;4.20;2.60;;;26.30;28.50;;;;;;5096771;28;20439;-56
2023/04/19 10:40:59;;;;;;;5.07;3.10;;;26.50;27.40;;;;;;5096906;28;20466;-56
2023/04/19 10:43:27;;;;;;;4.27;2.90;;;26.90;26.70;;;;;;5096733;28;20464;-57
2023/04/19 10:45:59;;;;;;;8.07;2.70;;;27.20;26.00;;;;;;5096608;28;20451;-56
2023/04/19 10:48:55;;;;;;;3.30;2.70;;;27.30;25.10;;;;;;5096569;28;20432;-56
2023/04/19 10:51:27;;;;;;;3.23;2.60;;;27.40;25.40;;;;;;5096255;28;20428;-57
2023/04/19 10:53:56;;;;;;;2.70;2.50;;;27.60;25.30;;;;;;5096169;28;20877;-57
2023/04/19 10:56:57;;;;;;;3.33;3.03;;;28.00;24.80;;;;;;5096519;28;20455;-57
2023/04/19 10:59:24;;;;;;;3.10;2.47;;;28.50;23.80;;;;;;5096109;28;20927;-57
2023/04/19 11:01:54;;;;;;;5.43;2.90;;;28.70;22.90;;;;;;5096360;28;20467;-56
2023/04/19 11:04:22;;;;;;;2.70;2.50;;;28.70;23.60;;;;;;5096336;28;20461;-56
2023/04/19 11:07:03;;;;;;;3.00;2.73;;;29.10;22.80;;;;;;5095876;28;20941;-56
2023/04/19 11:09:33;;;;;;;4.57;2.23;;;29.40;22.50;;;;;;5096152;28;20493;-57
2023/04/19 11:12:02;;;;;;;3.90;2.03;;;29.60;22.40;;;;;;5096112;28;20498;-57
2023/04/19 11:14:32;;;;;;;5.27;2.53;;;29.90;22.10;;;;;;5096143;28;20807;-56
2023/04/19 11:17:00;;;;;;;3.53;2.23;;;30.20;21.50;;;;;;5096184;28;20486;-56
2023/04/19 11:19:27;;;;;;;2.70;2.00;;;30.50;20.40;;;;;;5096285;28;20440;-56
2023/04/19 11:21:58;;;;;;;1.90;1.80;;;30.50;20.90;;;;;;5095991;28;20524;-57
2023/04/19 11:24:25;;;;;;;2.93;2.07;;;30.60;20.60;;;;;;5096380;28;20435;-57
2023/04/19 11:26:52;;;;;;;2.17;1.50;;;30.70;20.20;;;;;;5095881;28;20450;-56
2023/04/19 11:29:20;;;;;;;3.50;2.43;;;30.90;20.50;;;;;;5095303;28;20475;-56
2023/04/19 11:31:47;;;;;;;3.90;2.00;;;31.00;19.90;;;;;;5095508;28;21083;-57
2023/04/19 11:34:15;;;;;;;4.80;2.20;;;31.10;20.00;;;;;;5096033;28;20476;-57
2023/04/19 11:36:51;;;;;;;3.43;1.83;;;31.20;19.80;;;;;;5095798;28;20447;-56
2023/04/19 11:39:18;;;;;;;5.87;2.67;;;31.40;19.80;;;;;;5095478;28;20443;-57
2023/04/19 11:41:46;;;;;;;3.93;2.50;;;31.50;18.90;;;;;;5095676;28;20459;-57
2023/04/19 11:44:18;;;;;;;4.60;3.00;;;31.60;19.80;;;;;;5095280;28;20877;-56
2023/04/19 11:46:58;;;;;;;3.60;2.40;;;31.80;18.80;;;;;;5096763;28;20891;-57
2023/04/19 11:49:31;;;;;;;3.10;2.77;;;32.10;19.70;;;;;;5095450;28;20467;-57
2023/04/19 11:51:59;;;;;;;4.40;2.50;;;32.10;18.60;;;;;;5095765;28;20463;-57
2023/04/19 11:54:26;;;;;;;3.43;2.57;;;32.10;19.10;;;;;;5095405;28;20451;-57
2023/04/19 11:57:02;;;;;;;4.60;2.87;;;32.00;18.80;;;;;;5095088;28;20474;-57
2023/04/19 11:59:29;;;;;;;3.13;2.80;;;32.00;18.40;;;;;;5095375;28;20455;-57
2023/04/19 12:01:56;;;;;;;3.03;2.73;;;31.90;18.40;;;;;;5095210;28;20463;-57
2023/04/19 12:04:23;;;;;;;3.17;2.97;;;32.00;19.10;;;;;;5095646;28;20554;-57
2023/04/19 12:06:59;;;;;;;3.13;2.67;;;32.20;19.00;;;;;;5095867;28;20496;-57
2023/04/19 12:09:26;;;;;;;3.20;2.90;;;32.50;18.30;;;;;;5095528;28;20473;-57
2023/04/19 12:11:53;;;;;;;3.53;3.10;;;32.70;17.30;;;;;;5096511;28;20483;-56
2023/04/19 12:14:21;;;;;;;4.60;2.80;;;32.80;17.10;;;;;;5097018;28;20523;-57
2023/04/19 12:17:07;;;;;;;4.90;2.80;;;32.90;17.70;;;;;;5096008;28;20451;-56
2023/04/19 12:19:38;;;;;;;2.93;2.70;;;33.30;17.70;;;;;;5096074;28;20428;-56
2023/04/19 12:22:14;;;;;;;5.60;3.20;;;33.60;17.70;;;;;;5095521;28;20463;-57
2023/04/19 12:24:42;;;;;;;4.07;2.87;;;34.00;16.20;;;;;;5095132;28;20435;-57
2023/04/19 12:27:10;;;;;;;4.70;2.60;;;33.90;17.10;;;;;;5094938;28;20451;-57
2023/04/19 12:29:36;;;;;;;4.17;2.57;;;33.90;17.70;;;;;;5094755;28;20477;-57
2023/04/19 12:32:03;;;;;;;5.07;2.70;;;34.00;16.70;;;;;;5094924;28;20225;-57
2023/04/19 12:34:30;;;;;;;5.83;3.27;;;34.10;16.80;;;;;;5094804;28;20787;-57
2023/04/19 12:36:57;;;;;;;3.70;2.33;;;34.20;16.30;;;;;;5094768;28;20556;-57
2023/04/19 12:39:27;;;;;;;3.70;2.80;;;34.60;16.70;;;;;;5094799;28;20209;-57
2023/04/19 12:41:54;;;;;;;4.23;3.03;;;34.60;16.40;;;;;;5093827;28;20221;-57